Time;durP1;ratioP1;P1;durP2;ratioP2;P2;SDS_P1;SDS_P2;PMS_P1;PMS_P2;Temp;Humidity;BMP_temperature;BMP_pressure;BME280_temperature;BME280_humidity;BME280_pressure;Samples;Min_cycle;Max_cycle;Signal;HPM_P1;HPM_P2
2021/07/05 00:00:26;;;;;;;8.73;8.03;;;21.30;99.90;;;;;;4974925;28;20496;-69
2021/07/05 00:02:52;;;;;;;7.30;6.70;;;21.30;99.90;;;;;;4973195;28;20764;-70
2021/07/05 00:05:18;;;;;;;8.93;8.13;;;21.20;99.90;;;;;;4974547;28;20426;-70
2021/07/05 00:07:47;;;;;;;9.07;8.27;;;21.20;99.90;;;;;;4974483;28;20484;-70
2021/07/05 00:10:18;;;;;;;8.27;7.40;;;21.20;99.90;;;;;;4973714;28;20431;-70
2021/07/05 00:12:48;;;;;;;8.03;7.33;;;21.10;99.90;;;;;;4975633;28;20536;-70
2021/07/05 00:15:19;;;;;;;8.40;7.70;;;21.10;99.90;;;;;;4974357;28;20408;-70
2021/07/05 00:17:46;;;;;;;8.50;7.80;;;21.00;99.90;;;;;;4973350;28;20529;-70
2021/07/05 00:20:12;;;;;;;7.97;7.37;;;21.00;99.90;;;;;;4982640;28;21024;-70
2021/07/05 00:22:37;;;;;;;9.23;8.43;;;20.90;99.90;;;;;;4991570;28;20414;-70
2021/07/05 00:25:05;;;;;;;9.37;8.53;;;20.90;99.90;;;;;;4991332;28;20205;-70
2021/07/05 00:27:31;;;;;;;8.90;8.20;;;20.90;99.90;;;;;;4992149;28;20207;-70
2021/07/05 00:29:56;;;;;;;8.13;7.53;;;20.80;99.90;;;;;;4992807;28;20409;-70
2021/07/05 00:32:22;;;;;;;9.30;8.50;;;20.70;99.90;;;;;;4993127;28;20571;-70
2021/07/05 00:34:47;;;;;;;8.97;8.10;;;20.70;99.90;;;;;;4993171;28;20558;-70
2021/07/05 00:37:13;;;;;;;10.00;9.10;;;20.70;99.90;;;;;;4992986;28;20740;-70
2021/07/05 00:39:38;;;;;;;9.17;8.30;;;20.70;99.90;;;;;;4993032;28;20194;-70
2021/07/05 00:42:04;;;;;;;9.47;8.57;;;20.70;99.90;;;;;;4993047;28;20172;-70
2021/07/05 00:44:29;;;;;;;8.83;8.13;;;20.60;99.90;;;;;;4993313;28;20254;-70
2021/07/05 00:46:55;;;;;;;8.63;7.93;;;20.60;99.90;;;;;;4997630;28;20200;-70
2021/07/05 00:49:20;;;;;;;9.23;8.33;;;20.60;99.90;;;;;;5013947;28;20195;-70
2021/07/05 00:51:46;;;;;;;9.03;8.23;;;20.50;99.90;;;;;;5013185;28;20200;-70
2021/07/05 00:54:12;;;;;;;11.27;9.43;;;20.50;99.90;;;;;;5014225;28;20183;-71
2021/07/05 00:56:38;;;;;;;9.03;8.17;;;20.50;99.90;;;;;;5012672;28;20172;-70
2021/07/05 00:59:05;;;;;;;10.43;9.33;;;20.50;99.90;;;;;;5012260;28;20793;-70
2021/07/05 01:01:31;;;;;;;9.33;8.50;;;20.40;99.90;;;;;;5001833;28;20616;-70
2021/07/05 01:03:56;;;;;;;13.30;12.10;;;20.40;99.90;;;;;;4992670;28;20511;-70
2021/07/05 01:06:22;;;;;;;11.10;10.20;;;20.40;99.90;;;;;;4992674;28;20549;-70
2021/07/05 01:08:47;;;;;;;16.37;14.63;;;20.30;99.90;;;;;;4992832;28;20189;-70
2021/07/05 01:11:14;;;;;;;14.23;12.87;;;20.20;99.90;;;;;;4992907;28;20220;-70
2021/07/05 01:13:39;;;;;;;14.80;13.40;;;20.20;99.90;;;;;;4992624;28;20206;-70
2021/07/05 01:16:05;;;;;;;15.47;13.73;;;20.20;99.90;;;;;;4991579;28;20769;-70
2021/07/05 01:18:31;;;;;;;15.90;14.40;;;20.20;99.90;;;;;;4992873;28;20430;-70
2021/07/05 01:21:01;;;;;;;13.47;12.10;;;20.10;99.90;;;;;;4993585;28;20172;-71
2021/07/05 01:23:27;;;;;;;19.67;17.57;;;20.10;99.90;;;;;;4992953;28;20264;-71
2021/07/05 01:25:52;;;;;;;16.20;14.70;;;20.10;99.90;;;;;;4993234;28;20763;-70
2021/07/05 01:28:18;;;;;;;12.73;11.53;;;20.10;99.90;;;;;;4993126;28;20746;-70
2021/07/05 01:30:43;;;;;;;12.40;11.30;;;20.10;99.90;;;;;;4974931;28;20216;-70
2021/07/05 01:33:10;;;;;;;9.30;8.50;;;20.00;99.90;;;;;;4992023;28;20564;-70
2021/07/05 01:35:36;;;;;;;10.50;9.60;;;20.00;99.90;;;;;;4992387;28;20658;-70
2021/07/05 01:38:08;;;;;;;12.53;11.50;;;20.00;99.90;;;;;;4992181;28;20435;-71
2021/07/05 01:40:35;;;;;;;11.93;10.93;;;19.90;99.90;;;;;;4993424;28;20905;-70
2021/07/05 01:43:00;;;;;;;12.33;11.13;;;19.90;99.90;;;;;;4992476;28;20408;-70
2021/07/05 01:45:32;;;;;;;11.73;10.60;;;19.80;99.90;;;;;;4993086;28;20931;-70
2021/07/05 01:47:59;;;;;;;10.97;9.87;;;19.80;99.90;;;;;;4993760;28;20193;-70
2021/07/05 01:50:24;;;;;;;13.27;12.07;;;19.80;99.90;;;;;;4976546;28;20428;-70
2021/07/05 01:52:52;;;;;;;12.40;11.30;;;19.70;99.90;;;;;;4977321;28;20459;-70
2021/07/05 01:55:22;;;;;;;12.50;11.50;;;19.70;99.90;;;;;;4993508;28;20626;-70
2021/07/05 01:57:48;;;;;;;12.03;10.93;;;19.70;99.90;;;;;;4992336;28;20482;-70
2021/07/05 02:00:17;;;;;;;11.27;10.27;;;19.60;99.90;;;;;;4992024;28;20434;-70
2021/07/05 02:02:45;;;;;;;11.50;10.30;;;19.60;99.90;;;;;;4992176;28;20518;-70
2021/07/05 02:05:13;;;;;;;13.40;12.10;;;19.50;99.90;;;;;;4992144;28;20409;-70
2021/07/05 02:07:39;;;;;;;12.10;11.00;;;19.50;99.90;;;;;;4992042;28;20422;-70
2021/07/05 02:10:09;;;;;;;11.23;10.23;;;19.50;99.90;;;;;;4993148;28;20408;-71
2021/07/05 02:12:35;;;;;;;11.97;10.77;;;19.50;99.90;;;;;;4993537;28;20455;-70
2021/07/05 02:15:02;;;;;;;12.13;11.10;;;19.50;99.90;;;;;;4993837;28;20431;-69
2021/07/05 02:17:27;;;;;;;12.00;11.10;;;19.40;99.90;;;;;;4994127;28;20413;-69
2021/07/05 02:19:52;;;;;;;13.50;11.77;;;19.30;99.90;;;;;;4994083;28;20416;-68
2021/07/05 02:22:18;;;;;;;12.10;11.00;;;19.30;99.90;;;;;;4992093;28;20482;-67
2021/07/05 02:24:43;;;;;;;13.10;11.90;;;19.30;99.90;;;;;;4992290;28;20404;-68
2021/07/05 02:27:09;;;;;;;11.63;10.73;;;19.30;99.90;;;;;;4991827;28;20630;-69
2021/07/05 02:29:35;;;;;;;11.23;10.33;;;19.20;99.90;;;;;;4991791;28;20208;-68
2021/07/05 02:32:01;;;;;;;13.90;12.70;;;19.20;99.90;;;;;;4991795;28;20230;-70
2021/07/05 02:34:27;;;;;;;11.43;10.37;;;19.20;99.90;;;;;;4995247;28;20184;-68
2021/07/05 02:36:52;;;;;;;11.97;10.87;;;19.10;99.90;;;;;;4995775;28;20198;-68
2021/07/05 02:39:18;;;;;;;12.17;11.17;;;19.10;99.90;;;;;;4995663;28;20423;-69
2021/07/05 02:41:44;;;;;;;13.80;12.50;;;19.10;99.90;;;;;;4995455;28;20176;-68
2021/07/05 02:44:10;;;;;;;13.97;11.70;;;19.10;99.90;;;;;;4995791;28;20187;-68
2021/07/05 02:46:35;;;;;;;13.00;11.60;;;19.10;99.90;;;;;;4996003;28;20414;-69
2021/07/05 02:49:01;;;;;;;11.70;10.70;;;19.10;99.90;;;;;;4995468;28;20195;-68
2021/07/05 02:51:27;;;;;;;10.87;9.97;;;19.10;99.90;;;;;;4995920;28;20705;-68
2021/07/05 02:53:53;;;;;;;12.67;11.57;;;19.10;99.90;;;;;;4996319;28;20545;-68
2021/07/05 02:56:18;;;;;;;12.23;11.13;;;19.00;99.90;;;;;;4995676;28;20176;-68
2021/07/05 02:58:44;;;;;;;11.10;10.20;;;18.90;99.90;;;;;;4995005;28;20438;-70
2021/07/05 03:01:10;;;;;;;10.77;9.80;;;18.90;99.90;;;;;;4995104;28;20548;-69
2021/07/05 03:03:36;;;;;;;13.00;11.80;;;18.90;99.90;;;;;;4995350;28;20179;-69
2021/07/05 03:06:01;;;;;;;12.47;11.20;;;18.90;99.90;;;;;;4995309;28;20176;-69
2021/07/05 03:08:27;;;;;;;11.27;10.30;;;18.90;99.90;;;;;;4994910;28;20189;-69
2021/07/05 03:10:54;;;;;;;12.50;11.40;;;18.90;99.90;;;;;;4994753;28;20553;-68
2021/07/05 03:13:20;;;;;;;12.93;11.83;;;18.90;99.90;;;;;;4994890;28;20204;-68
2021/07/05 03:15:47;;;;;;;11.70;10.70;;;19.00;99.90;;;;;;4995108;28;20408;-68
2021/07/05 03:18:13;;;;;;;13.33;12.13;;;19.00;99.90;;;;;;4995232;28;20426;-68
2021/07/05 03:20:45;;;;;;;12.73;11.73;;;19.00;99.90;;;;;;4994772;28;20403;-69
2021/07/05 03:23:13;;;;;;;12.50;11.27;;;19.00;99.90;;;;;;4995414;28;20521;-68
2021/07/05 03:25:39;;;;;;;13.43;12.23;;;19.00;99.90;;;;;;4994507;28;20406;-69
2021/07/05 03:28:07;;;;;;;11.67;10.77;;;19.10;99.90;;;;;;4994521;28;20425;-69
2021/07/05 03:30:34;;;;;;;12.80;11.70;;;19.10;99.90;;;;;;4994615;28;20412;-70
2021/07/05 03:33:01;;;;;;;13.40;12.00;;;19.10;99.90;;;;;;4994364;28;20824;-68
2021/07/05 03:35:27;;;;;;;12.30;11.27;;;19.20;99.90;;;;;;4994290;28;20449;-68
2021/07/05 03:37:52;;;;;;;13.30;12.27;;;19.20;99.90;;;;;;4994164;28;20438;-69
2021/07/05 03:40:22;;;;;;;15.83;11.60;;;19.30;99.90;;;;;;4994211;28;20871;-69
2021/07/05 03:42:48;;;;;;;14.73;13.10;;;19.30;99.90;;;;;;4994251;28;20178;-69
2021/07/05 03:45:14;;;;;;;12.80;11.70;;;19.40;99.90;;;;;;4993696;28;20406;-69
2021/07/05 03:47:40;;;;;;;13.83;12.43;;;19.40;99.90;;;;;;4994626;28;20514;-69
2021/07/05 03:50:07;;;;;;;13.00;11.90;;;19.50;99.90;;;;;;4994473;28;20839;-69
2021/07/05 03:52:33;;;;;;;13.33;12.13;;;19.60;99.90;;;;;;4994101;28;20188;-71
2021/07/05 03:54:59;;;;;;;14.17;12.97;;;19.50;99.90;;;;;;4994463;28;20431;-72
2021/07/05 03:57:26;;;;;;;14.20;12.40;;;19.60;99.90;;;;;;4993950;28;20173;-71
2021/07/05 03:59:56;;;;;;;11.90;10.80;;;19.50;99.90;;;;;;4993858;28;20202;-71
2021/07/05 04:02:22;;;;;;;12.50;11.40;;;19.60;99.90;;;;;;4994065;28;20908;-71
2021/07/05 04:04:48;;;;;;;12.93;11.83;;;19.60;99.90;;;;;;4993725;28;20508;-71
2021/07/05 04:07:14;;;;;;;11.93;10.90;;;19.60;99.90;;;;;;4993561;28;20559;-71
2021/07/05 04:09:40;;;;;;;12.20;11.20;;;19.70;99.90;;;;;;4993923;28;20740;-71
2021/07/05 04:12:08;;;;;;;12.93;11.83;;;19.80;99.90;;;;;;4993671;28;20414;-71
2021/07/05 04:14:35;;;;;;;12.40;11.30;;;19.80;99.90;;;;;;4993820;28;20414;-69
2021/07/05 04:17:00;;;;;;;12.23;11.30;;;19.80;99.90;;;;;;4993770;28;20404;-69
2021/07/05 04:19:26;;;;;;;13.47;12.37;;;19.80;99.90;;;;;;4993893;28;20489;-68
2021/07/05 04:21:51;;;;;;;12.13;11.10;;;19.90;99.90;;;;;;4993510;28;20221;-69
2021/07/05 04:24:17;;;;;;;14.37;12.97;;;20.20;99.90;;;;;;4993818;28;20169;-69
2021/07/05 04:26:42;;;;;;;12.50;11.40;;;20.70;99.90;;;;;;4993432;28;20660;-69
2021/07/05 04:29:07;;;;;;;10.70;9.90;;;21.00;99.90;;;;;;4993354;28;20197;-70
2021/07/05 04:31:33;;;;;;;11.47;10.43;;;21.70;99.90;;;;;;4993292;28;20217;-69
2021/07/05 04:33:58;;;;;;;10.87;9.87;;;21.60;99.90;;;;;;4993518;28;20621;-69
2021/07/05 04:36:24;;;;;;;10.73;9.83;;;21.50;99.90;;;;;;4993234;28;20170;-69
2021/07/05 04:38:49;;;;;;;10.10;9.30;;;21.30;99.90;;;;;;4993290;28;20521;-69
2021/07/05 04:41:15;;;;;;;11.93;10.73;;;21.20;99.90;;;;;;4993629;28;20164;-69
2021/07/05 04:43:40;;;;;;;12.33;11.20;;;21.30;99.90;;;;;;4993388;28;20195;-69
2021/07/05 04:46:07;;;;;;;11.40;10.40;;;21.20;99.90;;;;;;4993441;28;20166;-70
2021/07/05 04:48:33;;;;;;;11.50;10.50;;;21.10;99.90;;;;;;4992984;28;20726;-68
2021/07/05 04:51:00;;;;;;;11.27;10.27;;;21.20;99.90;;;;;;4992801;28;20553;-70
2021/07/05 04:53:26;;;;;;;11.40;10.10;;;21.10;99.90;;;;;;4993099;28;20470;-69
2021/07/05 04:55:52;;;;;;;11.10;10.10;;;20.90;99.90;;;;;;4992886;28;20409;-69
2021/07/05 04:58:18;;;;;;;10.90;9.90;;;21.00;99.90;;;;;;4992945;28;20199;-69
2021/07/05 05:00:44;;;;;;;10.50;9.60;;;21.20;99.90;;;;;;4992996;28;20422;-69
2021/07/05 05:03:10;;;;;;;10.37;9.57;;;21.30;99.90;;;;;;4993069;28;20172;-69
2021/07/05 05:05:36;;;;;;;10.53;9.57;;;21.50;99.90;;;;;;4975506;28;20234;-69
2021/07/05 05:08:01;;;;;;;10.97;10.03;;;21.60;99.90;;;;;;4993008;28;20236;-69
2021/07/05 05:10:28;;;;;;;10.40;9.50;;;21.30;99.90;;;;;;4993182;28;20498;-69
2021/07/05 05:12:54;;;;;;;10.87;9.97;;;21.40;99.90;;;;;;4992981;28;20192;-70
2021/07/05 05:15:20;;;;;;;11.13;9.93;;;21.70;99.90;;;;;;4992938;28;20406;-69
2021/07/05 05:17:47;;;;;;;10.17;9.20;;;22.20;99.90;;;;;;4992693;28;20558;-70
2021/07/05 05:20:14;;;;;;;9.77;8.97;;;22.30;99.90;;;;;;4993079;28;20412;-68
2021/07/05 05:22:41;;;;;;;10.07;9.27;;;22.70;99.90;;;;;;4992511;28;20414;-68
2021/07/05 05:25:08;;;;;;;10.40;9.50;;;23.00;99.90;;;;;;4992682;28;20493;-69
2021/07/05 05:27:34;;;;;;;9.43;8.57;;;23.30;99.90;;;;;;4993018;28;20412;-68
2021/07/05 05:30:00;;;;;;;9.10;8.37;;;23.70;99.90;;;;;;4993075;28;20417;-69
2021/07/05 05:32:26;;;;;;;9.30;8.50;;;23.70;99.90;;;;;;4992136;28;20460;-68
2021/07/05 05:34:52;;;;;;;10.90;8.40;;;24.40;99.90;;;;;;4992144;28;20489;-69
2021/07/05 05:37:17;;;;;;;8.80;8.00;;;24.80;99.90;;;;;;4992722;28;20167;-69
2021/07/05 05:39:43;;;;;;;10.83;9.17;;;24.70;99.90;;;;;;4993612;28;20193;-69
2021/07/05 05:42:09;;;;;;;8.30;7.60;;;24.10;99.90;;;;;;4993000;28;20194;-68
2021/07/05 05:44:34;;;;;;;9.90;8.83;;;24.20;99.90;;;;;;4992995;28;20413;-70
2021/07/05 05:47:00;;;;;;;10.43;8.57;;;24.00;99.90;;;;;;4992604;28;20174;-68
2021/07/05 05:49:25;;;;;;;10.07;9.27;;;24.60;99.90;;;;;;4992678;28;20225;-67
2021/07/05 05:51:51;;;;;;;10.07;9.30;;;24.90;99.90;;;;;;4992296;28;20255;-68
2021/07/05 05:54:16;;;;;;;10.23;9.43;;;24.60;99.90;;;;;;4974598;28;20206;-70
2021/07/05 05:56:43;;;;;;;9.57;8.57;;;24.30;99.90;;;;;;4991972;28;20325;-69
2021/07/05 05:59:10;;;;;;;9.40;8.60;;;23.90;99.90;;;;;;4991998;28;20188;-68
2021/07/05 06:01:38;;;;;;;10.17;9.27;;;23.90;99.90;;;;;;4991843;28;20791;-68
2021/07/05 06:04:05;;;;;;;10.67;9.63;;;24.50;99.90;;;;;;4992095;28;20430;-69
2021/07/05 06:06:33;;;;;;;9.97;9.07;;;24.10;99.90;;;;;;4992174;28;20421;-69
2021/07/05 06:08:59;;;;;;;11.40;8.27;;;23.40;99.90;;;;;;4995296;28;20466;-68
2021/07/05 06:11:25;;;;;;;8.70;8.00;;;23.60;99.90;;;;;;4996551;28;20419;-69
2021/07/05 06:13:50;;;;;;;8.27;7.57;;;24.50;99.90;;;;;;4996367;28;20770;-69
2021/07/05 06:16:16;;;;;;;9.47;8.53;;;24.50;99.90;;;;;;4996774;28;20440;-69
2021/07/05 06:18:42;;;;;;;8.93;7.67;;;24.50;99.90;;;;;;4995571;28;20561;-67
2021/07/05 06:21:08;;;;;;;7.60;6.83;;;25.10;99.90;;;;;;4995833;28;20255;-69
2021/07/05 06:23:33;;;;;;;10.57;7.93;;;25.60;99.90;;;;;;4996160;28;20181;-68
2021/07/05 06:26:00;;;;;;;8.57;7.50;;;25.50;99.90;;;;;;4995668;28;20175;-68
2021/07/05 06:28:28;;;;;;;8.67;7.87;;;24.40;99.90;;;;;;4996539;28;20197;-68
2021/07/05 06:30:54;;;;;;;7.93;7.33;;;24.50;99.90;;;;;;4996290;28;20465;-68
2021/07/05 06:33:20;;;;;;;8.93;8.13;;;24.80;99.90;;;;;;4996423;28;20474;-69
2021/07/05 06:35:47;;;;;;;7.80;7.20;;;25.20;99.90;;;;;;4995440;28;20427;-69
2021/07/05 06:38:14;;;;;;;7.33;6.63;;;24.40;99.90;;;;;;4995632;28;20427;-67
2021/07/05 06:40:40;;;;;;;8.10;7.50;;;25.10;99.90;;;;;;4996806;28;20408;-67
2021/07/05 06:43:06;;;;;;;8.17;7.07;;;24.60;99.90;;;;;;4996976;28;20455;-69
2021/07/05 06:45:32;;;;;;;8.53;7.67;;;25.60;99.90;;;;;;4996291;28;20916;-67
2021/07/05 06:47:58;;;;;;;7.53;6.83;;;25.80;99.90;;;;;;4995917;28;20206;-70
2021/07/05 06:50:24;;;;;;;7.67;6.97;;;25.50;99.90;;;;;;4995724;28;20866;-67
2021/07/05 06:52:50;;;;;;;7.80;7.10;;;24.60;99.90;;;;;;4996246;28;20248;-67
2021/07/05 06:55:16;;;;;;;8.73;8.03;;;25.20;99.90;;;;;;4978126;28;20414;-67
2021/07/05 06:57:42;;;;;;;7.23;6.63;;;25.00;99.90;;;;;;4995475;28;20441;-68
2021/07/05 07:00:19;;;;;;;7.90;7.20;;;25.20;99.90;;;;;;4995916;28;20187;-68
2021/07/05 07:02:46;;;;;;;6.80;6.20;;;25.10;99.90;;;;;;4977859;28;20176;-68
2021/07/05 07:05:14;;;;;;;7.17;6.57;;;25.10;99.90;;;;;;4995131;28;20403;-67
2021/07/05 07:07:41;;;;;;;7.23;6.63;;;24.70;99.90;;;;;;4992301;28;20441;-68
2021/07/05 07:10:08;;;;;;;6.53;5.93;;;24.10;99.90;;;;;;4994496;28;20999;-68
2021/07/05 07:12:37;;;;;;;8.10;7.40;;;23.40;99.90;;;;;;4987672;28;20458;-68
2021/07/05 07:15:05;;;;;;;7.40;6.80;;;23.20;99.90;;;;;;4975380;28;20411;-69
2021/07/05 07:19:58;;;;;;;7.80;7.20;;;24.60;99.90;;;;;;4994715;28;20438;-68
2021/07/05 07:22:24;;;;;;;7.70;7.10;;;24.10;99.90;;;;;;4994527;28;20446;-68
2021/07/05 07:24:50;;;;;;;8.40;7.70;;;23.40;99.90;;;;;;4986654;28;20666;-68
2021/07/05 07:27:15;;;;;;;8.33;7.63;;;22.80;99.90;;;;;;4975400;28;20197;-69
2021/07/05 07:29:41;;;;;;;7.80;7.20;;;22.80;99.90;;;;;;4974940;28;20774;-68
2021/07/05 07:32:07;;;;;;;7.27;6.67;;;23.30;99.90;;;;;;4974919;28;20180;-67
2021/07/05 07:34:32;;;;;;;7.50;6.90;;;23.10;99.90;;;;;;4974647;28;20644;-67
2021/07/05 07:37:02;;;;;;;7.13;6.53;;;22.70;99.90;;;;;;4974561;28;20177;-68
2021/07/05 07:39:34;;;;;;;6.70;6.10;;;23.30;99.90;;;;;;4993091;28;20192;-68
2021/07/05 07:42:00;;;;;;;7.07;6.57;;;22.80;99.90;;;;;;4992939;28;20493;-69
2021/07/05 07:44:25;;;;;;;6.33;5.73;;;22.60;99.90;;;;;;4993729;28;20460;-69
2021/07/05 07:46:51;;;;;;;7.10;6.30;;;22.30;99.90;;;;;;4993229;28;20183;-68
2021/07/05 07:49:16;;;;;;;7.40;6.80;;;22.20;99.90;;;;;;4993075;28;20207;-68
2021/07/05 07:51:42;;;;;;;7.30;6.70;;;21.90;99.90;;;;;;4993083;28;20184;-68
2021/07/05 07:54:07;;;;;;;6.90;6.20;;;22.20;99.90;;;;;;4993111;28;20199;-67
2021/07/05 07:56:34;;;;;;;7.50;6.90;;;22.20;99.90;;;;;;4992875;28;20689;-67
2021/07/05 07:59:02;;;;;;;6.97;6.43;;;22.10;99.90;;;;;;4992911;28;20183;-67
2021/07/05 08:01:28;;;;;;;8.83;7.23;;;21.60;99.90;;;;;;4992882;28;20401;-68
2021/07/05 08:03:54;;;;;;;6.70;6.10;;;21.30;99.90;;;;;;4993324;28;20470;-69
2021/07/05 08:06:20;;;;;;;7.10;6.40;;;21.20;99.90;;;;;;4993162;28;20752;-69
2021/07/05 08:08:48;;;;;;;6.10;5.63;;;21.30;99.90;;;;;;4992529;28;20450;-68
2021/07/05 08:11:14;;;;;;;6.53;5.90;;;21.30;99.90;;;;;;4992895;28;20171;-68
2021/07/05 08:13:39;;;;;;;6.23;5.73;;;21.50;99.90;;;;;;4993027;28;20536;-68
2021/07/05 08:16:05;;;;;;;7.07;6.37;;;21.30;99.90;;;;;;4998648;28;20215;-69
2021/07/05 08:18:30;;;;;;;6.40;5.80;;;21.40;99.90;;;;;;5003964;28;20201;-67
2021/07/05 08:20:56;;;;;;;7.60;6.30;;;20.90;99.90;;;;;;5012232;28;20172;-67
2021/07/05 08:23:22;;;;;;;7.63;6.93;;;20.50;99.90;;;;;;5012306;28;20170;-67
2021/07/05 08:25:48;;;;;;;7.40;6.30;;;20.70;99.90;;;;;;5012123;28;20419;-68
2021/07/05 08:28:15;;;;;;;19.67;7.20;;;20.80;99.90;;;;;;5012212;28;20268;-69
2021/07/05 08:30:41;;;;;;;6.53;5.87;;;20.50;99.90;;;;;;5011484;28;20520;-68
2021/07/05 08:33:07;;;;;;;8.80;6.27;;;20.40;99.90;;;;;;5012045;28;20452;-68
2021/07/05 08:35:33;;;;;;;8.13;6.65;;;20.50;99.90;;;;;;4978674;28;981066;-67
2021/07/05 08:37:59;;;;;;;8.40;6.60;;;20.10;99.90;;;;;;5012514;28;20233;-67
2021/07/05 08:40:24;;;;;;;6.27;5.73;;;19.90;99.90;;;;;;5012837;28;20405;-68
2021/07/05 08:42:52;;;;;;;5.70;5.20;;;19.90;99.90;;;;;;5006235;28;20512;-68
2021/07/05 08:45:18;;;;;;;5.67;5.27;;;19.50;99.90;;;;;;4993339;28;20169;-69
2021/07/05 08:47:49;;;;;;;6.23;5.63;;;19.60;99.90;;;;;;4993347;28;20432;-70
2021/07/05 08:50:16;;;;;;;6.70;6.10;;;19.90;99.90;;;;;;4994579;28;20459;-69
2021/07/05 08:52:43;;;;;;;6.07;5.53;;;20.10;99.90;;;;;;4994018;28;20452;-69
2021/07/05 08:55:10;;;;;;;6.60;6.00;;;20.00;99.90;;;;;;4994336;28;20931;-68
2021/07/05 08:57:38;;;;;;;10.13;9.17;;;20.20;99.90;;;;;;4994397;28;20405;-70
2021/07/05 09:00:13;;;;;;;9.30;8.30;;;20.30;99.90;;;;;;4992979;28;20408;-68
2021/07/05 09:02:39;;;;;;;10.30;7.60;;;20.30;99.90;;;;;;4992914;28;20404;-68
2021/07/05 09:05:06;;;;;;;9.90;8.60;;;20.00;99.90;;;;;;4992804;28;20417;-68
2021/07/05 09:07:32;;;;;;;7.30;6.60;;;19.60;99.90;;;;;;4992706;28;20175;-68
2021/07/05 09:10:06;;;;;;;9.93;7.10;;;19.70;99.90;;;;;;4992760;28;20422;-68
2021/07/05 09:12:32;;;;;;;7.70;6.93;;;19.90;99.90;;;;;;4992675;28;20198;-68
2021/07/05 09:15:09;;;;;;;8.63;7.93;;;20.00;99.90;;;;;;4992708;28;20403;-68
2021/07/05 09:17:35;;;;;;;8.10;7.43;;;20.00;99.90;;;;;;4973139;28;20409;-67
2021/07/05 09:20:18;;;;;;;7.13;6.43;;;19.80;99.90;;;;;;4973546;28;20419;-68
2021/07/05 09:23:11;;;;;;;7.63;6.93;;;20.00;99.90;;;;;;4973318;28;20420;-67
2021/07/05 09:25:41;;;;;;;7.93;7.23;;;19.90;99.90;;;;;;4955806;28;20417;-69
2021/07/05 09:28:08;;;;;;;8.13;6.70;;;20.20;99.90;;;;;;4973007;28;20470;-69
2021/07/05 09:30:42;;;;;;;7.00;6.37;;;20.10;99.90;;;;;;4973739;28;20756;-69
2021/07/05 09:33:23;;;;;;;8.20;7.40;;;19.90;99.90;;;;;;4973179;28;20456;-70
2021/07/05 09:35:58;;;;;;;7.47;6.73;;;20.10;99.90;;;;;;4973074;28;20485;-68
2021/07/05 09:38:34;;;;;;;8.10;7.40;;;20.20;99.90;;;;;;4973832;28;20455;-70
2021/07/05 09:41:18;;;;;;;7.20;6.60;;;20.30;99.90;;;;;;4998815;28;20762;-69
2021/07/05 09:43:45;;;;;;;7.60;7.00;;;20.40;99.90;;;;;;5011338;28;20789;-69
2021/07/05 09:46:12;;;;;;;7.00;6.40;;;20.40;99.90;;;;;;5012528;28;20414;-68
2021/07/05 09:48:46;;;;;;;9.13;7.63;;;20.20;99.90;;;;;;5012159;28;20430;-68
2021/07/05 09:51:17;;;;;;;9.17;8.37;;;20.50;99.90;;;;;;5011577;28;20415;-69
2021/07/05 09:53:44;;;;;;;8.63;7.83;;;20.50;99.90;;;;;;5002657;28;20954;-67
2021/07/05 09:56:19;;;;;;;7.30;6.70;;;20.20;99.90;;;;;;5011817;28;20413;-68
2021/07/05 09:58:45;;;;;;;8.03;7.23;;;20.20;99.90;;;;;;4990940;28;20426;-67
2021/07/05 10:01:10;;;;;;;8.97;8.07;;;20.20;99.90;;;;;;4991972;28;20409;-68
2021/07/05 10:03:40;;;;;;;7.77;6.97;;;20.10;99.90;;;;;;4992033;28;20932;-69
2021/07/05 10:06:26;;;;;;;7.57;6.87;;;20.20;99.90;;;;;;4992051;28;20173;-69
2021/07/05 10:08:55;;;;;;;8.20;7.40;;;20.00;99.90;;;;;;4992077;28;20581;-69
2021/07/05 10:11:23;;;;;;;11.30;8.27;;;20.00;99.90;;;;;;4972788;28;20418;-69
2021/07/05 10:13:48;;;;;;;8.70;8.00;;;20.10;99.90;;;;;;4977148;28;20446;-70
2021/07/05 10:16:13;;;;;;;7.60;6.90;;;20.20;99.90;;;;;;5003671;28;20440;-68
2021/07/05 10:18:51;;;;;;;8.77;7.87;;;20.10;99.90;;;;;;5011647;28;20228;-69
2021/07/05 10:21:16;;;;;;;7.33;6.73;;;20.20;99.90;;;;;;5010159;28;20212;-68
2021/07/05 10:23:43;;;;;;;9.20;8.23;;;20.30;99.90;;;;;;5002068;28;20478;-68
2021/07/05 10:26:09;;;;;;;9.20;8.30;;;20.30;99.90;;;;;;5011649;28;20791;-68
2021/07/05 10:28:34;;;;;;;7.10;6.40;;;20.50;99.90;;;;;;5011134;28;20425;-68
2021/07/05 10:31:01;;;;;;;7.57;6.87;;;20.70;99.90;;;;;;5005804;28;20176;-69
2021/07/05 10:33:26;;;;;;;10.27;9.27;;;20.70;99.90;;;;;;4991516;28;20664;-67
2021/07/05 10:35:55;;;;;;;9.00;8.20;;;20.60;99.90;;;;;;4991699;28;20445;-68
2021/07/05 10:38:36;;;;;;;8.53;7.73;;;20.60;99.90;;;;;;4991805;28;20548;-69
2021/07/05 10:41:11;;;;;;;9.20;7.50;;;20.80;99.90;;;;;;4991701;28;20492;-69
2021/07/05 10:44:04;;;;;;;9.07;8.17;;;20.90;99.90;;;;;;4992048;28;20607;-67
2021/07/05 10:46:52;;;;;;;8.70;7.90;;;20.80;99.90;;;;;;4991925;28;20461;-70
2021/07/05 10:49:33;;;;;;;8.70;7.63;;;20.90;99.90;;;;;;4991599;28;20431;-68
2021/07/05 10:52:03;;;;;;;7.20;6.57;;;21.10;99.90;;;;;;4991892;28;20424;-69
2021/07/05 10:54:50;;;;;;;7.47;6.87;;;21.60;99.90;;;;;;4993401;28;20465;-69
2021/07/05 10:57:36;;;;;;;8.40;7.00;;;21.10;99.90;;;;;;5003038;28;20394;-69
2021/07/05 11:00:09;;;;;;;8.03;7.23;;;21.20;99.90;;;;;;4987748;28;20501;-69
2021/07/05 11:02:41;;;;;;;7.50;6.80;;;21.40;99.90;;;;;;4995340;28;20413;-69
2021/07/05 11:05:33;;;;;;;7.20;6.50;;;21.00;99.90;;;;;;4994924;28;20408;-70
2021/07/05 11:08:16;;;;;;;7.90;7.20;;;20.80;99.90;;;;;;4994747;28;20440;-68
2021/07/05 11:10:43;;;;;;;6.70;6.20;;;20.90;99.90;;;;;;4994984;28;20413;-69
2021/07/05 11:13:09;;;;;;;7.57;6.40;;;20.80;99.90;;;;;;4994757;28;20449;-69
2021/07/05 11:15:55;;;;;;;6.20;5.60;;;20.80;99.90;;;;;;5001189;28;20957;-69
2021/07/05 11:18:39;;;;;;;6.77;6.07;;;21.00;99.90;;;;;;5014179;28;20280;-69
2021/07/05 11:21:24;;;;;;;6.40;5.10;;;20.80;99.90;;;;;;5014485;28;20497;-70
2021/07/05 11:26:22;;;;;;;6.10;4.87;;;21.10;99.90;;;;;;5014392;28;20427;-68
2021/07/05 11:29:23;;;;;;;6.10;5.60;;;20.80;99.90;;;;;;5011981;28;20425;-68
2021/07/05 11:32:01;;;;;;;5.60;5.00;;;20.90;99.90;;;;;;4996989;28;20413;-70
2021/07/05 11:34:37;;;;;;;6.13;5.13;;;21.20;99.90;;;;;;4994519;28;20488;-68
2021/07/05 11:37:11;;;;;;;4.83;4.40;;;21.00;99.90;;;;;;4994406;28;20408;-68
2021/07/05 11:39:38;;;;;;;5.17;4.67;;;20.80;99.90;;;;;;4994574;28;20450;-70
2021/07/05 11:42:04;;;;;;;6.00;4.87;;;20.80;99.90;;;;;;4994324;28;20893;-68
2021/07/05 11:44:47;;;;;;;5.50;4.73;;;21.00;99.90;;;;;;4994360;28;20410;-69
2021/07/05 11:47:38;;;;;;;3.53;3.23;;;21.10;99.90;;;;;;4994309;28;20258;-68
2021/07/05 11:50:22;;;;;;;4.83;3.67;;;21.10;99.90;;;;;;4994194;28;20426;-69
2021/07/05 11:52:56;;;;;;;4.47;4.07;;;21.30;99.90;;;;;;4994015;28;20447;-69
2021/07/05 11:55:25;;;;;;;4.60;4.30;;;21.50;99.90;;;;;;4994110;28;20414;-68
2021/07/05 11:57:53;;;;;;;5.17;4.67;;;21.90;99.90;;;;;;4993710;28;20490;-75
2021/07/05 12:00:26;;;;;;;4.57;4.20;;;22.40;99.90;;;;;;4993951;28;20434;-68
2021/07/05 12:03:13;;;;;;;4.10;3.63;;;22.60;99.90;;;;;;4993859;28;20409;-70
2021/07/05 12:05:44;;;;;;;4.30;3.90;;;23.10;99.90;;;;;;4993004;28;20418;-69
2021/07/05 12:08:12;;;;;;;4.80;4.40;;;23.00;99.90;;;;;;4990793;28;20429;-70
2021/07/05 12:10:41;;;;;;;4.70;3.87;;;23.30;99.90;;;;;;4991037;28;20440;-68
2021/07/05 12:13:23;;;;;;;4.90;4.60;;;23.10;99.90;;;;;;4993717;28;20452;-67
2021/07/05 12:16:07;;;;;;;5.27;4.87;;;23.40;99.90;;;;;;5001942;28;20418;-68
2021/07/05 12:18:33;;;;;;;5.53;5.13;;;22.90;99.90;;;;;;5013135;28;20430;-74
2021/07/05 12:21:07;;;;;;;5.47;5.07;;;22.50;99.90;;;;;;5007069;28;20753;-70
2021/07/05 12:23:35;;;;;;;4.90;4.50;;;22.60;99.90;;;;;;4993810;28;20425;-71
2021/07/05 12:26:38;;;;;;;6.40;5.80;;;23.20;99.90;;;;;;4990614;28;20468;-69
2021/07/05 12:29:06;;;;;;;5.30;4.80;;;22.90;99.90;;;;;;4979985;28;20470;-71
2021/07/05 12:31:32;;;;;;;4.40;4.10;;;23.10;99.90;;;;;;4973705;28;20440;-68
2021/07/05 12:33:59;;;;;;;5.50;4.73;;;23.40;99.90;;;;;;4980801;28;20462;-68
2021/07/05 12:36:25;;;;;;;4.43;4.07;;;23.90;99.90;;;;;;4993323;28;20455;-68
2021/07/05 12:38:59;;;;;;;3.67;3.47;;;23.90;99.90;;;;;;4993035;28;20415;-68
2021/07/05 12:41:29;;;;;;;5.10;4.70;;;24.00;99.90;;;;;;4993326;28;20786;-67
2021/07/05 12:44:10;;;;;;;5.47;4.93;;;24.30;99.90;;;;;;4993327;28;20401;-67
2021/07/05 12:46:36;;;;;;;5.33;4.87;;;24.60;99.90;;;;;;5000622;28;20446;-68
2021/07/05 12:49:02;;;;;;;5.80;4.30;;;24.50;99.90;;;;;;5005916;28;20755;-69
2021/07/05 12:51:27;;;;;;;4.77;4.37;;;24.10;99.90;;;;;;5012739;28;20222;-68